sensor_id;sensor_type;location;lat;lon;timestamp;P1;durP1;ratioP1;P2;durP2;ratioP2
60372;SDS011;46216;52.220;5.134;2023-03-11T00:01:06;7.43;;;1.07;;
60372;SDS011;46216;52.220;5.134;2023-03-11T00:03:32;6.37;;;1.30;;
60372;SDS011;46216;52.220;5.134;2023-03-11T00:05:59;4.87;;;1.20;;
60372;SDS011;46216;52.220;5.134;2023-03-11T00:08:25;7.83;;;1.40;;
60372;SDS011;46216;52.220;5.134;2023-03-11T00:10:55;3.50;;;1.00;;
60372;SDS011;46216;52.220;5.134;2023-03-11T00:13:26;4.73;;;1.20;;
60372;SDS011;46216;52.220;5.134;2023-03-11T00:15:53;4.13;;;1.10;;
60372;SDS011;46216;52.220;5.134;2023-03-11T00:18:24;6.78;;;1.10;;
60372;SDS011;46216;52.220;5.134;2023-03-11T00:20:51;3.97;;;1.10;;
60372;SDS011;46216;52.220;5.134;2023-03-11T00:23:17;4.03;;;1.70;;
60372;SDS011;46216;52.220;5.134;2023-03-11T00:25:43;6.15;;;1.13;;
60372;SDS011;46216;52.220;5.134;2023-03-11T00:28:09;2.88;;;1.00;;
60372;SDS011;46216;52.220;5.134;2023-03-11T00:30:35;10.40;;;1.30;;
60372;SDS011;46216;52.220;5.134;2023-03-11T00:33:02;6.03;;;1.10;;
60372;SDS011;46216;52.220;5.134;2023-03-11T00:35:29;4.90;;;1.10;;
60372;SDS011;46216;52.220;5.134;2023-03-11T00:37:57;4.17;;;1.20;;
60372;SDS011;46216;52.220;5.134;2023-03-11T00:40:25;7.50;;;1.02;;
60372;SDS011;46216;52.220;5.134;2023-03-11T00:42:51;7.47;;;0.90;;
60372;SDS011;46216;52.220;5.134;2023-03-11T00:45:17;2.27;;;0.90;;
60372;SDS011;46216;52.220;5.134;2023-03-11T00:47:42;4.33;;;1.00;;
60372;SDS011;46216;52.220;5.134;2023-03-11T00:50:08;4.03;;;1.10;;
60372;SDS011;46216;52.220;5.134;2023-03-11T00:52:37;4.50;;;1.10;;
60372;SDS011;46216;52.220;5.134;2023-03-11T00:55:03;3.27;;;0.93;;
60372;SDS011;46216;52.220;5.134;2023-03-11T00:57:29;3.90;;;0.98;;
60372;SDS011;46216;52.220;5.134;2023-03-11T00:59:54;4.27;;;1.20;;
60372;SDS011;46216;52.220;5.134;2023-03-11T01:02:20;6.10;;;1.20;;
60372;SDS011;46216;52.220;5.134;2023-03-11T01:04:45;4.40;;;1.20;;
60372;SDS011;46216;52.220;5.134;2023-03-11T01:07:11;5.30;;;1.00;;
60372;SDS011;46216;52.220;5.134;2023-03-11T01:09:36;5.13;;;1.30;;
60372;SDS011;46216;52.220;5.134;2023-03-11T01:12:02;6.97;;;1.63;;
60372;SDS011;46216;52.220;5.134;2023-03-11T01:14:27;5.00;;;1.00;;
60372;SDS011;46216;52.220;5.134;2023-03-11T01:16:53;3.47;;;1.40;;
60372;SDS011;46216;52.220;5.134;2023-03-11T01:19:19;4.53;;;1.23;;
60372;SDS011;46216;52.220;5.134;2023-03-11T01:21:44;6.57;;;1.50;;
60372;SDS011;46216;52.220;5.134;2023-03-11T01:24:10;6.30;;;1.27;;
60372;SDS011;46216;52.220;5.134;2023-03-11T01:26:35;3.05;;;1.40;;
60372;SDS011;46216;52.220;5.134;2023-03-11T01:29:01;3.03;;;1.20;;
60372;SDS011;46216;52.220;5.134;2023-03-11T01:31:26;4.07;;;1.30;;
60372;SDS011;46216;52.220;5.134;2023-03-11T01:33:51;3.13;;;1.23;;
60372;SDS011;46216;52.220;5.134;2023-03-11T01:36:17;3.27;;;0.97;;
60372;SDS011;46216;52.220;5.134;2023-03-11T01:38:42;5.03;;;0.97;;
60372;SDS011;46216;52.220;5.134;2023-03-11T01:41:08;5.47;;;1.20;;
60372;SDS011;46216;52.220;5.134;2023-03-11T01:49:00;5.40;;;1.27;;
60372;SDS011;46216;52.220;5.134;2023-03-11T01:51:40;7.47;;;1.23;;
60372;SDS011;46216;52.220;5.134;2023-03-11T01:54:12;3.80;;;1.17;;
60372;SDS011;46216;52.220;5.134;2023-03-11T01:56:40;3.10;;;1.20;;
60372;SDS011;46216;52.220;5.134;2023-03-11T01:59:07;4.73;;;1.00;;
60372;SDS011;46216;52.220;5.134;2023-03-11T02:01:34;3.33;;;1.27;;
60372;SDS011;46216;52.220;5.134;2023-03-11T02:04:07;4.77;;;1.20;;
60372;SDS011;46216;52.220;5.134;2023-03-11T02:06:33;3.70;;;1.07;;
60372;SDS011;46216;52.220;5.134;2023-03-11T02:08:59;3.00;;;1.00;;
60372;SDS011;46216;52.220;5.134;2023-03-11T02:11:26;5.67;;;1.20;;
60372;SDS011;46216;52.220;5.134;2023-03-11T02:13:55;4.23;;;1.10;;
60372;SDS011;46216;52.220;5.134;2023-03-11T02:16:24;4.93;;;1.30;;
60372;SDS011;46216;52.220;5.134;2023-03-11T02:18:50;5.18;;;1.15;;
60372;SDS011;46216;52.220;5.134;2023-03-11T02:29:15;5.93;;;1.10;;
60372;SDS011;46216;52.220;5.134;2023-03-11T02:31:41;6.60;;;1.17;;
60372;SDS011;46216;52.220;5.134;2023-03-11T02:34:08;4.60;;;1.23;;
60372;SDS011;46216;52.220;5.134;2023-03-11T02:36:42;4.83;;;1.13;;
60372;SDS011;46216;52.220;5.134;2023-03-11T02:39:08;6.07;;;1.43;;
60372;SDS011;46216;52.220;5.134;2023-03-11T02:41:34;4.37;;;0.90;;
60372;SDS011;46216;52.220;5.134;2023-03-11T02:44:02;4.00;;;1.20;;
60372;SDS011;46216;52.220;5.134;2023-03-11T02:46:31;5.03;;;1.27;;
60372;SDS011;46216;52.220;5.134;2023-03-11T02:48:56;3.23;;;1.00;;
60372;SDS011;46216;52.220;5.134;2023-03-11T02:51:22;2.87;;;1.00;;
60372;SDS011;46216;52.220;5.134;2023-03-11T02:53:48;1.60;;;0.90;;
60372;SDS011;46216;52.220;5.134;2023-03-11T02:56:17;5.90;;;1.30;;
60372;SDS011;46216;52.220;5.134;2023-03-11T02:58:42;5.10;;;1.30;;
60372;SDS011;46216;52.220;5.134;2023-03-11T03:01:07;3.20;;;1.10;;
60372;SDS011;46216;52.220;5.134;2023-03-11T03:03:33;3.90;;;1.10;;
60372;SDS011;46216;52.220;5.134;2023-03-11T03:05:58;2.63;;;1.13;;
60372;SDS011;46216;52.220;5.134;2023-03-11T03:08:24;4.33;;;1.30;;
60372;SDS011;46216;52.220;5.134;2023-03-11T03:10:49;4.80;;;1.20;;
60372;SDS011;46216;52.220;5.134;2023-03-11T03:13:15;5.27;;;1.27;;
60372;SDS011;46216;52.220;5.134;2023-03-11T03:15:40;5.67;;;1.07;;
60372;SDS011;46216;52.220;5.134;2023-03-11T03:18:05;4.00;;;1.20;;
60372;SDS011;46216;52.220;5.134;2023-03-11T03:20:31;2.43;;;1.10;;
60372;SDS011;46216;52.220;5.134;2023-03-11T03:22:56;3.30;;;1.10;;
60372;SDS011;46216;52.220;5.134;2023-03-11T03:25:22;2.20;;;1.00;;
60372;SDS011;46216;52.220;5.134;2023-03-11T03:27:47;3.27;;;1.57;;
60372;SDS011;46216;52.220;5.134;2023-03-11T03:30:13;2.93;;;1.37;;
60372;SDS011;46216;52.220;5.134;2023-03-11T03:32:39;3.77;;;1.30;;
60372;SDS011;46216;52.220;5.134;2023-03-11T03:35:05;2.63;;;1.20;;
60372;SDS011;46216;52.220;5.134;2023-03-11T03:37:31;4.67;;;1.20;;
60372;SDS011;46216;52.220;5.134;2023-03-11T03:39:58;4.07;;;1.20;;
60372;SDS011;46216;52.220;5.134;2023-03-11T03:42:23;3.53;;;1.20;;
60372;SDS011;46216;52.220;5.134;2023-03-11T03:44:49;9.97;;;1.53;;
60372;SDS011;46216;52.220;5.134;2023-03-11T03:47:15;3.63;;;1.10;;
60372;SDS011;46216;52.220;5.134;2023-03-11T03:49:41;4.23;;;1.20;;
60372;SDS011;46216;52.220;5.134;2023-03-11T03:52:06;5.83;;;1.13;;
60372;SDS011;46216;52.220;5.134;2023-03-11T03:54:32;5.17;;;1.27;;
60372;SDS011;46216;52.220;5.134;2023-03-11T03:56:58;4.60;;;1.10;;
60372;SDS011;46216;52.220;5.134;2023-03-11T03:59:23;1.87;;;1.10;;
60372;SDS011;46216;52.220;5.134;2023-03-11T04:01:49;2.40;;;1.43;;
60372;SDS011;46216;52.220;5.134;2023-03-11T04:04:14;4.03;;;1.27;;
60372;SDS011;46216;52.220;5.134;2023-03-11T04:06:41;4.60;;;1.07;;
60372;SDS011;46216;52.220;5.134;2023-03-11T04:09:06;4.23;;;1.20;;
60372;SDS011;46216;52.220;5.134;2023-03-11T04:11:34;2.33;;;1.20;;
60372;SDS011;46216;52.220;5.134;2023-03-11T04:14:00;3.47;;;1.07;;
60372;SDS011;46216;52.220;5.134;2023-03-11T04:16:26;5.50;;;1.20;;
60372;SDS011;46216;52.220;5.134;2023-03-11T04:18:51;4.70;;;1.30;;
60372;SDS011;46216;52.220;5.134;2023-03-11T04:21:17;6.30;;;1.10;;
60372;SDS011;46216;52.220;5.134;2023-03-11T04:23:42;3.67;;;1.10;;
60372;SDS011;46216;52.220;5.134;2023-03-11T04:26:08;3.57;;;1.37;;
60372;SDS011;46216;52.220;5.134;2023-03-11T04:28:34;1.97;;;0.90;;
60372;SDS011;46216;52.220;5.134;2023-03-11T04:30:59;4.20;;;1.23;;
60372;SDS011;46216;52.220;5.134;2023-03-11T04:33:25;3.17;;;1.20;;
60372;SDS011;46216;52.220;5.134;2023-03-11T04:35:50;2.87;;;0.90;;
60372;SDS011;46216;52.220;5.134;2023-03-11T04:38:15;6.60;;;1.50;;
60372;SDS011;46216;52.220;5.134;2023-03-11T04:40:41;4.60;;;1.23;;
60372;SDS011;46216;52.220;5.134;2023-03-11T04:43:06;6.13;;;1.20;;
60372;SDS011;46216;52.220;5.134;2023-03-11T04:45:32;3.03;;;1.13;;
60372;SDS011;46216;52.220;5.134;2023-03-11T04:47:57;3.27;;;1.10;;
60372;SDS011;46216;52.220;5.134;2023-03-11T04:50:23;4.97;;;1.40;;
60372;SDS011;46216;52.220;5.134;2023-03-11T04:52:51;2.17;;;1.40;;
60372;SDS011;46216;52.220;5.134;2023-03-11T04:55:16;4.57;;;1.37;;
60372;SDS011;46216;52.220;5.134;2023-03-11T04:57:42;4.13;;;1.43;;
60372;SDS011;46216;52.220;5.134;2023-03-11T05:00:08;3.57;;;1.40;;
60372;SDS011;46216;52.220;5.134;2023-03-11T05:02:36;5.03;;;1.60;;
60372;SDS011;46216;52.220;5.134;2023-03-11T05:05:03;5.33;;;1.60;;
60372;SDS011;46216;52.220;5.134;2023-03-11T05:07:30;2.27;;;1.27;;
60372;SDS011;46216;52.220;5.134;2023-03-11T05:09:55;4.97;;;1.63;;
60372;SDS011;46216;52.220;5.134;2023-03-11T05:12:21;4.50;;;1.40;;
60372;SDS011;46216;52.220;5.134;2023-03-11T05:14:46;4.07;;;1.30;;
60372;SDS011;46216;52.220;5.134;2023-03-11T05:17:11;7.50;;;1.63;;
60372;SDS011;46216;52.220;5.134;2023-03-11T05:19:38;4.23;;;1.50;;
60372;SDS011;46216;52.220;5.134;2023-03-11T05:22:04;2.73;;;1.50;;
60372;SDS011;46216;52.220;5.134;2023-03-11T05:24:30;3.33;;;1.30;;
60372;SDS011;46216;52.220;5.134;2023-03-11T05:26:56;5.33;;;1.50;;
60372;SDS011;46216;52.220;5.134;2023-03-11T05:29:22;6.03;;;1.50;;
60372;SDS011;46216;52.220;5.134;2023-03-11T05:31:48;4.13;;;1.83;;
60372;SDS011;46216;52.220;5.134;2023-03-11T05:34:14;5.73;;;1.60;;
60372;SDS011;46216;52.220;5.134;2023-03-11T05:36:39;6.03;;;1.43;;
60372;SDS011;46216;52.220;5.134;2023-03-11T05:39:05;5.77;;;1.60;;
60372;SDS011;46216;52.220;5.134;2023-03-11T05:41:30;4.53;;;1.40;;
60372;SDS011;46216;52.220;5.134;2023-03-11T05:43:55;6.83;;;1.87;;
60372;SDS011;46216;52.220;5.134;2023-03-11T05:46:21;3.20;;;1.20;;
60372;SDS011;46216;52.220;5.134;2023-03-11T05:48:47;2.40;;;1.40;;
60372;SDS011;46216;52.220;5.134;2023-03-11T05:51:12;6.30;;;1.23;;
60372;SDS011;46216;52.220;5.134;2023-03-11T05:53:38;5.93;;;1.93;;
60372;SDS011;46216;52.220;5.134;2023-03-11T05:56:06;3.97;;;1.80;;
60372;SDS011;46216;52.220;5.134;2023-03-11T05:58:32;3.77;;;1.60;;
60372;SDS011;46216;52.220;5.134;2023-03-11T06:00:57;5.67;;;1.93;;
60372;SDS011;46216;52.220;5.134;2023-03-11T06:03:25;5.23;;;1.70;;
60372;SDS011;46216;52.220;5.134;2023-03-11T06:05:51;6.47;;;1.77;;
60372;SDS011;46216;52.220;5.134;2023-03-11T06:08:17;4.20;;;1.80;;
60372;SDS011;46216;52.220;5.134;2023-03-11T06:10:43;6.00;;;2.30;;
60372;SDS011;46216;52.220;5.134;2023-03-11T06:13:09;8.47;;;1.90;;
60372;SDS011;46216;52.220;5.134;2023-03-11T06:15:35;4.73;;;1.77;;
60372;SDS011;46216;52.220;5.134;2023-03-11T06:18:02;4.90;;;1.83;;
60372;SDS011;46216;52.220;5.134;2023-03-11T06:20:28;7.30;;;1.70;;
60372;SDS011;46216;52.220;5.134;2023-03-11T06:22:54;5.00;;;1.80;;
60372;SDS011;46216;52.220;5.134;2023-03-11T06:25:19;5.90;;;1.77;;
60372;SDS011;46216;52.220;5.134;2023-03-11T06:27:48;4.63;;;1.87;;
60372;SDS011;46216;52.220;5.134;2023-03-11T06:30:16;5.93;;;1.90;;
60372;SDS011;46216;52.220;5.134;2023-03-11T06:32:42;6.70;;;2.30;;
60372;SDS011;46216;52.220;5.134;2023-03-11T06:35:09;7.03;;;2.47;;
60372;SDS011;46216;52.220;5.134;2023-03-11T06:37:35;9.87;;;2.53;;
60372;SDS011;46216;52.220;5.134;2023-03-11T06:40:01;5.00;;;2.57;;
60372;SDS011;46216;52.220;5.134;2023-03-11T06:42:27;7.37;;;2.57;;
60372;SDS011;46216;52.220;5.134;2023-03-11T06:44:53;5.10;;;2.60;;
60372;SDS011;46216;52.220;5.134;2023-03-11T06:47:18;5.50;;;2.50;;
60372;SDS011;46216;52.220;5.134;2023-03-11T06:49:44;5.90;;;2.30;;
60372;SDS011;46216;52.220;5.134;2023-03-11T06:52:09;4.53;;;2.40;;
60372;SDS011;46216;52.220;5.134;2023-03-11T06:54:34;6.03;;;2.53;;
60372;SDS011;46216;52.220;5.134;2023-03-11T06:57:00;6.97;;;2.50;;
60372;SDS011;46216;52.220;5.134;2023-03-11T06:59:26;5.83;;;2.53;;
60372;SDS011;46216;52.220;5.134;2023-03-11T07:01:52;4.23;;;2.30;;
60372;SDS011;46216;52.220;5.134;2023-03-11T07:04:18;7.20;;;2.90;;
60372;SDS011;46216;52.220;5.134;2023-03-11T07:06:44;4.10;;;2.40;;
60372;SDS011;46216;52.220;5.134;2023-03-11T07:09:09;6.07;;;2.97;;
60372;SDS011;46216;52.220;5.134;2023-03-11T07:11:35;5.23;;;2.67;;
60372;SDS011;46216;52.220;5.134;2023-03-11T07:14:00;5.50;;;2.80;;
60372;SDS011;46216;52.220;5.134;2023-03-11T07:16:27;4.23;;;2.30;;
60372;SDS011;46216;52.220;5.134;2023-03-11T07:18:54;3.80;;;2.73;;
60372;SDS011;46216;52.220;5.134;2023-03-11T07:21:23;5.47;;;2.50;;
60372;SDS011;46216;52.220;5.134;2023-03-11T07:23:53;4.37;;;2.60;;
60372;SDS011;46216;52.220;5.134;2023-03-11T07:26:19;4.83;;;2.60;;
60372;SDS011;46216;52.220;5.134;2023-03-11T07:28:45;7.27;;;1.93;;
60372;SDS011;46216;52.220;5.134;2023-03-11T07:31:17;5.77;;;2.30;;
60372;SDS011;46216;52.220;5.134;2023-03-11T07:33:45;10.40;;;3.30;;
60372;SDS011;46216;52.220;5.134;2023-03-11T07:36:11;4.17;;;2.13;;
60372;SDS011;46216;52.220;5.134;2023-03-11T07:38:38;6.20;;;2.30;;
60372;SDS011;46216;52.220;5.134;2023-03-11T07:41:04;5.97;;;2.30;;
60372;SDS011;46216;52.220;5.134;2023-03-11T07:43:30;5.33;;;2.40;;
60372;SDS011;46216;52.220;5.134;2023-03-11T07:48:32;7.73;;;2.70;;
60372;SDS011;46216;52.220;5.134;2023-03-11T07:50:59;5.80;;;2.80;;
60372;SDS011;46216;52.220;5.134;2023-03-11T07:53:35;6.40;;;2.30;;
60372;SDS011;46216;52.220;5.134;2023-03-11T07:56:01;7.33;;;2.60;;
60372;SDS011;46216;52.220;5.134;2023-03-11T07:58:27;6.30;;;2.33;;
60372;SDS011;46216;52.220;5.134;2023-03-11T08:00:53;6.73;;;2.30;;
60372;SDS011;46216;52.220;5.134;2023-03-11T08:03:20;6.83;;;2.83;;
60372;SDS011;46216;52.220;5.134;2023-03-11T08:05:49;3.77;;;2.03;;
60372;SDS011;46216;52.220;5.134;2023-03-11T08:08:15;6.43;;;2.10;;
60372;SDS011;46216;52.220;5.134;2023-03-11T08:10:40;4.53;;;2.50;;
60372;SDS011;46216;52.220;5.134;2023-03-11T08:13:06;5.13;;;2.53;;
60372;SDS011;46216;52.220;5.134;2023-03-11T08:15:31;8.13;;;3.07;;
60372;SDS011;46216;52.220;5.134;2023-03-11T08:17:56;4.63;;;2.20;;
60372;SDS011;46216;52.220;5.134;2023-03-11T08:20:22;9.23;;;2.53;;
60372;SDS011;46216;52.220;5.134;2023-03-11T08:22:47;7.17;;;2.10;;
60372;SDS011;46216;52.220;5.134;2023-03-11T08:25:12;7.20;;;1.80;;
60372;SDS011;46216;52.220;5.134;2023-03-11T08:27:38;5.20;;;2.00;;
60372;SDS011;46216;52.220;5.134;2023-03-11T08:30:04;5.57;;;1.50;;
60372;SDS011;46216;52.220;5.134;2023-03-11T08:32:30;2.97;;;1.63;;
60372;SDS011;46216;52.220;5.134;2023-03-11T08:34:57;5.38;;;1.73;;
60372;SDS011;46216;52.220;5.134;2023-03-11T08:37:23;2.53;;;1.47;;
60372;SDS011;46216;52.220;5.134;2023-03-11T08:39:48;5.90;;;1.77;;
60372;SDS011;46216;52.220;5.134;2023-03-11T08:42:14;4.60;;;1.57;;
60372;SDS011;46216;52.220;5.134;2023-03-11T08:44:41;5.80;;;1.77;;
60372;SDS011;46216;52.220;5.134;2023-03-11T08:47:06;3.83;;;1.50;;
60372;SDS011;46216;52.220;5.134;2023-03-11T08:49:32;5.35;;;1.50;;
60372;SDS011;46216;52.220;5.134;2023-03-11T08:51:57;8.32;;;1.77;;
60372;SDS011;46216;52.220;5.134;2023-03-11T08:54:22;4.30;;;1.37;;
60372;SDS011;46216;52.220;5.134;2023-03-11T08:56:48;5.53;;;1.45;;
60372;SDS011;46216;52.220;5.134;2023-03-11T08:59:13;4.40;;;1.30;;
60372;SDS011;46216;52.220;5.134;2023-03-11T09:01:38;4.25;;;1.30;;
60372;SDS011;46216;52.220;5.134;2023-03-11T09:04:04;6.18;;;1.30;;
60372;SDS011;46216;52.220;5.134;2023-03-11T09:06:30;4.88;;;1.30;;
60372;SDS011;46216;52.220;5.134;2023-03-11T09:08:55;2.67;;;1.10;;
60372;SDS011;46216;52.220;5.134;2023-03-11T09:11:21;7.75;;;3.72;;
60372;SDS011;46216;52.220;5.134;2023-03-11T09:13:47;4.65;;;1.23;;
60372;SDS011;46216;52.220;5.134;2023-03-11T09:16:13;2.30;;;1.00;;
60372;SDS011;46216;52.220;5.134;2023-03-11T09:18:41;6.30;;;1.10;;
60372;SDS011;46216;52.220;5.134;2023-03-11T09:21:07;4.78;;;0.88;;
60372;SDS011;46216;52.220;5.134;2023-03-11T09:23:32;5.05;;;1.00;;
60372;SDS011;46216;52.220;5.134;2023-03-11T09:25:57;3.30;;;0.80;;
60372;SDS011;46216;52.220;5.134;2023-03-11T09:28:23;3.97;;;1.10;;
60372;SDS011;46216;52.220;5.134;2023-03-11T09:30:48;3.55;;;0.80;;
60372;SDS011;46216;52.220;5.134;2023-03-11T09:33:13;4.22;;;0.90;;
60372;SDS011;46216;52.220;5.134;2023-03-11T09:35:39;4.75;;;1.02;;
60372;SDS011;46216;52.220;5.134;2023-03-11T09:38:04;2.00;;;0.70;;
60372;SDS011;46216;52.220;5.134;2023-03-11T09:40:38;5.68;;;1.27;;
60372;SDS011;46216;52.220;5.134;2023-03-11T09:49:01;5.07;;;1.08;;
60372;SDS011;46216;52.220;5.134;2023-03-11T09:51:42;6.15;;;1.17;;
60372;SDS011;46216;52.220;5.134;2023-03-11T09:54:12;3.08;;;0.80;;
60372;SDS011;46216;52.220;5.134;2023-03-11T09:56:38;4.63;;;0.73;;
60372;SDS011;46216;52.220;5.134;2023-03-11T09:59:08;3.70;;;1.13;;
60372;SDS011;46216;52.220;5.134;2023-03-11T10:01:45;6.13;;;1.02;;
60372;SDS011;46216;52.220;5.134;2023-03-11T10:06:48;3.80;;;0.80;;
60372;SDS011;46216;52.220;5.134;2023-03-11T10:20:41;3.38;;;0.70;;
60372;SDS011;46216;52.220;5.134;2023-03-11T10:26:17;4.47;;;0.93;;
60372;SDS011;46216;52.220;5.134;2023-03-11T10:29:00;5.85;;;1.10;;
60372;SDS011;46216;52.220;5.134;2023-03-11T10:31:38;3.92;;;0.68;;
60372;SDS011;46216;52.220;5.134;2023-03-11T10:34:22;6.07;;;0.80;;
60372;SDS011;46216;52.220;5.134;2023-03-11T10:36:57;3.45;;;0.90;;
60372;SDS011;46216;52.220;5.134;2023-03-11T10:39:27;6.68;;;1.20;;
60372;SDS011;46216;52.220;5.134;2023-03-11T10:41:56;2.35;;;0.75;;
60372;SDS011;46216;52.220;5.134;2023-03-11T10:44:30;5.32;;;1.00;;
60372;SDS011;46216;52.220;5.134;2023-03-11T10:46:59;4.25;;;1.15;;
60372;SDS011;46216;52.220;5.134;2023-03-11T10:49:25;3.33;;;0.98;;
60372;SDS011;46216;52.220;5.134;2023-03-11T10:51:52;4.50;;;0.85;;
60372;SDS011;46216;52.220;5.134;2023-03-11T10:54:26;4.75;;;1.10;;
60372;SDS011;46216;52.220;5.134;2023-03-11T10:56:58;4.03;;;1.00;;
60372;SDS011;46216;52.220;5.134;2023-03-11T10:59:29;3.72;;;0.95;;
60372;SDS011;46216;52.220;5.134;2023-03-11T11:01:58;3.38;;;0.70;;
60372;SDS011;46216;52.220;5.134;2023-03-11T11:04:28;3.50;;;0.90;;
60372;SDS011;46216;52.220;5.134;2023-03-11T11:07:03;2.60;;;1.05;;
60372;SDS011;46216;52.220;5.134;2023-03-11T11:10:31;8.02;;;1.30;;
60372;SDS011;46216;52.220;5.134;2023-03-11T11:17:54;4.55;;;1.13;;
60372;SDS011;46216;52.220;5.134;2023-03-11T11:20:22;2.67;;;0.80;;
60372;SDS011;46216;52.220;5.134;2023-03-11T11:23:01;7.20;;;0.95;;
60372;SDS011;46216;52.220;5.134;2023-03-11T11:25:35;5.25;;;1.10;;
60372;SDS011;46216;52.220;5.134;2023-03-11T11:28:23;4.35;;;0.98;;
60372;SDS011;46216;52.220;5.134;2023-03-11T11:30:52;4.88;;;1.77;;
60372;SDS011;46216;52.220;5.134;2023-03-11T11:35:56;4.22;;;1.15;;
60372;SDS011;46216;52.220;5.134;2023-03-11T11:38:24;6.13;;;1.35;;
60372;SDS011;46216;52.220;5.134;2023-03-11T11:40:52;3.90;;;0.90;;
60372;SDS011;46216;52.220;5.134;2023-03-11T11:43:22;4.53;;;1.05;;
60372;SDS011;46216;52.220;5.134;2023-03-11T11:45:58;6.80;;;1.00;;
60372;SDS011;46216;52.220;5.134;2023-03-11T11:48:34;5.43;;;1.00;;
60372;SDS011;46216;52.220;5.134;2023-03-11T11:51:33;6.88;;;1.45;;
60372;SDS011;46216;52.220;5.134;2023-03-11T11:54:00;1.90;;;0.77;;
60372;SDS011;46216;52.220;5.134;2023-03-11T11:56:48;3.92;;;0.80;;
60372;SDS011;46216;52.220;5.134;2023-03-11T11:59:17;3.55;;;0.90;;
60372;SDS011;46216;52.220;5.134;2023-03-11T12:04:56;2.97;;;0.95;;
60372;SDS011;46216;52.220;5.134;2023-03-11T12:07:38;3.20;;;0.77;;
60372;SDS011;46216;52.220;5.134;2023-03-11T12:10:15;3.67;;;0.90;;
60372;SDS011;46216;52.220;5.134;2023-03-11T12:13:01;3.90;;;1.13;;
60372;SDS011;46216;52.220;5.134;2023-03-11T12:15:35;5.78;;;1.02;;
60372;SDS011;46216;52.220;5.134;2023-03-11T12:18:04;4.28;;;0.80;;
60372;SDS011;46216;52.220;5.134;2023-03-11T12:20:41;4.97;;;0.93;;
60372;SDS011;46216;52.220;5.134;2023-03-11T12:26:02;4.93;;;1.17;;
60372;SDS011;46216;52.220;5.134;2023-03-11T12:28:36;2.65;;;0.98;;
60372;SDS011;46216;52.220;5.134;2023-03-11T12:31:07;3.72;;;1.70;;
60372;SDS011;46216;52.220;5.134;2023-03-11T12:33:36;5.00;;;1.08;;
60372;SDS011;46216;52.220;5.134;2023-03-11T12:36:04;3.45;;;0.88;;
60372;SDS011;46216;52.220;5.134;2023-03-11T12:38:40;4.60;;;0.93;;
60372;SDS011;46216;52.220;5.134;2023-03-11T12:48:36;2.42;;;0.93;;
60372;SDS011;46216;52.220;5.134;2023-03-11T12:51:28;5.18;;;1.45;;
60372;SDS011;46216;52.220;5.134;2023-03-11T12:57:00;4.88;;;0.90;;
60372;SDS011;46216;52.220;5.134;2023-03-11T13:07:54;4.18;;;1.10;;
60372;SDS011;46216;52.220;5.134;2023-03-11T13:15:52;3.38;;;1.00;;
60372;SDS011;46216;52.220;5.134;2023-03-11T13:18:24;3.17;;;1.30;;
60372;SDS011;46216;52.220;5.134;2023-03-11T13:20:53;2.78;;;1.00;;
60372;SDS011;46216;52.220;5.134;2023-03-11T13:23:26;3.83;;;1.13;;
60372;SDS011;46216;52.220;5.134;2023-03-11T13:37:02;3.38;;;1.20;;
60372;SDS011;46216;52.220;5.134;2023-03-11T13:42:16;3.28;;;1.02;;
60372;SDS011;46216;52.220;5.134;2023-03-11T13:44:49;1.42;;;0.77;;
60372;SDS011;46216;52.220;5.134;2023-03-11T13:47:16;3.53;;;1.35;;
60372;SDS011;46216;52.220;5.134;2023-03-11T13:49:51;2.88;;;1.23;;
60372;SDS011;46216;52.220;5.134;2023-03-11T13:52:46;3.53;;;1.00;;
60372;SDS011;46216;52.220;5.134;2023-03-11T13:55:18;2.45;;;1.17;;
60372;SDS011;46216;52.220;5.134;2023-03-11T13:57:52;4.30;;;1.00;;
60372;SDS011;46216;52.220;5.134;2023-03-11T14:00:21;4.30;;;1.15;;
60372;SDS011;46216;52.220;5.134;2023-03-11T14:05:30;2.65;;;0.90;;
60372;SDS011;46216;52.220;5.134;2023-03-11T14:08:12;3.20;;;0.82;;
60372;SDS011;46216;52.220;5.134;2023-03-11T14:10:37;4.95;;;1.33;;
60372;SDS011;46216;52.220;5.134;2023-03-11T14:13:16;2.47;;;0.90;;
60372;SDS011;46216;52.220;5.134;2023-03-11T14:15:45;3.83;;;1.08;;
60372;SDS011;46216;52.220;5.134;2023-03-11T14:18:25;3.15;;;1.13;;
60372;SDS011;46216;52.220;5.134;2023-03-11T14:20:52;2.70;;;1.17;;
60372;SDS011;46216;52.220;5.134;2023-03-11T14:23:18;5.93;;;1.25;;
60372;SDS011;46216;52.220;5.134;2023-03-11T14:25:44;4.00;;;1.00;;
60372;SDS011;46216;52.220;5.134;2023-03-11T14:28:17;3.35;;;1.05;;
60372;SDS011;46216;52.220;5.134;2023-03-11T14:30:57;2.28;;;1.10;;
60372;SDS011;46216;52.220;5.134;2023-03-11T14:33:23;4.43;;;1.33;;
60372;SDS011;46216;52.220;5.134;2023-03-11T14:38:21;2.83;;;1.20;;
60372;SDS011;46216;52.220;5.134;2023-03-11T14:40:49;3.80;;;1.40;;
60372;SDS011;46216;52.220;5.134;2023-03-11T14:43:18;6.78;;;1.30;;
60372;SDS011;46216;52.220;5.134;2023-03-11T14:45:45;2.92;;;1.13;;
60372;SDS011;46216;52.220;5.134;2023-03-11T14:48:17;3.85;;;1.25;;
60372;SDS011;46216;52.220;5.134;2023-03-11T14:51:03;4.40;;;1.20;;
60372;SDS011;46216;52.220;5.134;2023-03-11T14:53:36;10.30;;;1.30;;
60372;SDS011;46216;52.220;5.134;2023-03-11T14:56:28;3.53;;;1.30;;
60372;SDS011;46216;52.220;5.134;2023-03-11T14:58:56;6.18;;;1.50;;
60372;SDS011;46216;52.220;5.134;2023-03-11T15:01:31;4.38;;;1.30;;
60372;SDS011;46216;52.220;5.134;2023-03-11T15:04:12;4.55;;;1.40;;
60372;SDS011;46216;52.220;5.134;2023-03-11T15:06:43;2.83;;;1.17;;
60372;SDS011;46216;52.220;5.134;2023-03-11T15:09:14;4.15;;;1.23;;
60372;SDS011;46216;52.220;5.134;2023-03-11T15:16:51;3.90;;;1.17;;
60372;SDS011;46216;52.220;5.134;2023-03-11T15:21:52;2.70;;;0.90;;
60372;SDS011;46216;52.220;5.134;2023-03-11T15:24:22;2.97;;;1.20;;
60372;SDS011;46216;52.220;5.134;2023-03-11T15:26:53;4.95;;;1.10;;
60372;SDS011;46216;52.220;5.134;2023-03-11T15:29:20;5.95;;;1.20;;
60372;SDS011;46216;52.220;5.134;2023-03-11T15:31:47;3.78;;;0.93;;
60372;SDS011;46216;52.220;5.134;2023-03-11T15:36:53;3.10;;;0.77;;
60372;SDS011;46216;52.220;5.134;2023-03-11T15:42:01;4.13;;;0.98;;
60372;SDS011;46216;52.220;5.134;2023-03-11T15:44:41;4.13;;;0.85;;
60372;SDS011;46216;52.220;5.134;2023-03-11T15:47:21;4.93;;;0.90;;
60372;SDS011;46216;52.220;5.134;2023-03-11T15:49:47;3.22;;;0.85;;
60372;SDS011;46216;52.220;5.134;2023-03-11T15:52:13;3.58;;;0.85;;
60372;SDS011;46216;52.220;5.134;2023-03-11T15:54:40;3.53;;;1.13;;
60372;SDS011;46216;52.220;5.134;2023-03-11T15:57:06;2.97;;;0.93;;
60372;SDS011;46216;52.220;5.134;2023-03-11T15:59:33;4.57;;;0.93;;
60372;SDS011;46216;52.220;5.134;2023-03-11T16:02:00;2.58;;;0.90;;
60372;SDS011;46216;52.220;5.134;2023-03-11T16:04:26;4.13;;;0.85;;
60372;SDS011;46216;52.220;5.134;2023-03-11T16:06:51;5.47;;;0.82;;
60372;SDS011;46216;52.220;5.134;2023-03-11T16:09:17;1.58;;;0.70;;
60372;SDS011;46216;52.220;5.134;2023-03-11T16:11:43;4.25;;;0.85;;
60372;SDS011;46216;52.220;5.134;2023-03-11T16:14:12;2.67;;;0.90;;
60372;SDS011;46216;52.220;5.134;2023-03-11T16:16:40;2.85;;;0.90;;
60372;SDS011;46216;52.220;5.134;2023-03-11T16:19:06;4.78;;;1.10;;
60372;SDS011;46216;52.220;5.134;2023-03-11T16:21:33;4.55;;;1.08;;
60372;SDS011;46216;52.220;5.134;2023-03-11T16:24:00;2.40;;;0.90;;
60372;SDS011;46216;52.220;5.134;2023-03-11T16:26:26;5.05;;;1.08;;
60372;SDS011;46216;52.220;5.134;2023-03-11T16:28:51;2.55;;;0.90;;
60372;SDS011;46216;52.220;5.134;2023-03-11T16:31:17;2.90;;;0.85;;
60372;SDS011;46216;52.220;5.134;2023-03-11T16:33:42;5.30;;;0.90;;
60372;SDS011;46216;52.220;5.134;2023-03-11T16:36:09;4.78;;;1.23;;
60372;SDS011;46216;52.220;5.134;2023-03-11T16:38:40;5.25;;;0.90;;
60372;SDS011;46216;52.220;5.134;2023-03-11T16:41:09;4.80;;;1.38;;
60372;SDS011;46216;52.220;5.134;2023-03-11T16:43:37;3.97;;;1.40;;